sensor_id;sensor_type;location;lat;lon;timestamp;temperature;humidity
16863;DHT22;52193;48.216;-1.698;2023-05-15T00:01:37;19.60;87.90
16863;DHT22;52193;48.216;-1.698;2023-05-15T00:04:04;19.60;88.00
16863;DHT22;52193;48.216;-1.698;2023-05-15T00:06:31;19.40;87.90
16863;DHT22;52193;48.216;-1.698;2023-05-15T00:08:58;19.40;88.00
16863;DHT22;52193;48.216;-1.698;2023-05-15T00:11:25;19.40;88.20
16863;DHT22;52193;48.216;-1.698;2023-05-15T00:13:53;19.50;88.20
16863;DHT22;52193;48.216;-1.698;2023-05-15T00:16:20;19.40;88.40
16863;DHT22;52193;48.216;-1.698;2023-05-15T00:18:47;19.40;88.30
16863;DHT22;52193;48.216;-1.698;2023-05-15T00:21:14;19.40;88.50
16863;DHT22;52193;48.216;-1.698;2023-05-15T00:23:41;19.30;88.60
16863;DHT22;52193;48.216;-1.698;2023-05-15T00:26:08;19.30;88.90
16863;DHT22;52193;48.216;-1.698;2023-05-15T00:28:35;19.30;88.90
16863;DHT22;52193;48.216;-1.698;2023-05-15T00:31:03;19.30;88.90
16863;DHT22;52193;48.216;-1.698;2023-05-15T00:33:30;19.30;89.10
16863;DHT22;52193;48.216;-1.698;2023-05-15T00:35:57;19.30;89.10
16863;DHT22;52193;48.216;-1.698;2023-05-15T00:38:24;19.30;89.10
16863;DHT22;52193;48.216;-1.698;2023-05-15T00:40:51;19.30;89.70
16863;DHT22;52193;48.216;-1.698;2023-05-15T00:43:19;19.20;89.10
16863;DHT22;52193;48.216;-1.698;2023-05-15T00:45:47;19.30;89.30
16863;DHT22;52193;48.216;-1.698;2023-05-15T00:48:17;19.30;89.30
16863;DHT22;52193;48.216;-1.698;2023-05-15T00:50:48;19.30;89.20
16863;DHT22;52193;48.216;-1.698;2023-05-15T00:53:16;19.20;89.50
16863;DHT22;52193;48.216;-1.698;2023-05-15T00:55:44;19.20;89.60
16863;DHT22;52193;48.216;-1.698;2023-05-15T00:58:13;19.10;89.80
16863;DHT22;52193;48.216;-1.698;2023-05-15T01:00:41;19.10;89.80
16863;DHT22;52193;48.216;-1.698;2023-05-15T01:03:08;19.10;89.80
16863;DHT22;52193;48.216;-1.698;2023-05-15T01:05:37;19.10;89.90
16863;DHT22;52193;48.216;-1.698;2023-05-15T01:08:14;19.10;90.00
16863;DHT22;52193;48.216;-1.698;2023-05-15T01:10:42;19.10;90.00
16863;DHT22;52193;48.216;-1.698;2023-05-15T01:13:10;19.10;89.90
16863;DHT22;52193;48.216;-1.698;2023-05-15T01:15:40;19.10;90.10
16863;DHT22;52193;48.216;-1.698;2023-05-15T01:18:07;19.00;90.10
16863;DHT22;52193;48.216;-1.698;2023-05-15T01:20:46;19.00;90.20
16863;DHT22;52193;48.216;-1.698;2023-05-15T01:23:22;19.00;90.30
16863;DHT22;52193;48.216;-1.698;2023-05-15T01:26:10;19.10;90.30
16863;DHT22;52193;48.216;-1.698;2023-05-15T01:28:45;19.00;90.40
16863;DHT22;52193;48.216;-1.698;2023-05-15T01:31:15;19.00;90.40
16863;DHT22;52193;48.216;-1.698;2023-05-15T01:33:45;19.00;90.60
16863;DHT22;52193;48.216;-1.698;2023-05-15T01:36:22;19.00;90.50
16863;DHT22;52193;48.216;-1.698;2023-05-15T01:38:52;19.00;90.70
16863;DHT22;52193;48.216;-1.698;2023-05-15T01:41:23;19.00;90.70
16863;DHT22;52193;48.216;-1.698;2023-05-15T01:43:56;18.90;90.70
16863;DHT22;52193;48.216;-1.698;2023-05-15T01:46:26;18.90;90.80
16863;DHT22;52193;48.216;-1.698;2023-05-15T01:48:56;18.90;90.80
16863;DHT22;52193;48.216;-1.698;2023-05-15T01:51:25;19.00;90.80
16863;DHT22;52193;48.216;-1.698;2023-05-15T01:53:53;18.90;90.80
16863;DHT22;52193;48.216;-1.698;2023-05-15T01:56:22;18.90;90.90
16863;DHT22;52193;48.216;-1.698;2023-05-15T01:58:50;18.80;90.90
16863;DHT22;52193;48.216;-1.698;2023-05-15T02:01:20;18.90;90.90
16863;DHT22;52193;48.216;-1.698;2023-05-15T02:03:48;18.80;90.90
16863;DHT22;52193;48.216;-1.698;2023-05-15T02:06:15;18.90;90.90
16863;DHT22;52193;48.216;-1.698;2023-05-15T02:08:44;19.00;90.90
16863;DHT22;52193;48.216;-1.698;2023-05-15T02:11:12;18.90;90.90
16863;DHT22;52193;48.216;-1.698;2023-05-15T02:13:40;18.90;91.00
16863;DHT22;52193;48.216;-1.698;2023-05-15T02:16:08;18.80;91.00
16863;DHT22;52193;48.216;-1.698;2023-05-15T02:18:36;18.90;91.10
16863;DHT22;52193;48.216;-1.698;2023-05-15T02:21:03;18.80;91.00
16863;DHT22;52193;48.216;-1.698;2023-05-15T02:23:30;18.80;91.10
16863;DHT22;52193;48.216;-1.698;2023-05-15T02:26:07;18.70;91.10
16863;DHT22;52193;48.216;-1.698;2023-05-15T02:28:40;18.70;91.20
16863;DHT22;52193;48.216;-1.698;2023-05-15T02:31:13;18.70;91.20
16863;DHT22;52193;48.216;-1.698;2023-05-15T02:33:53;18.70;91.20
16863;DHT22;52193;48.216;-1.698;2023-05-15T02:36:27;18.60;91.20
16863;DHT22;52193;48.216;-1.698;2023-05-15T02:38:55;18.70;91.30
16863;DHT22;52193;48.216;-1.698;2023-05-15T02:41:23;18.70;91.30
16863;DHT22;52193;48.216;-1.698;2023-05-15T02:43:51;18.70;91.40
16863;DHT22;52193;48.216;-1.698;2023-05-15T02:46:20;18.70;91.30
16863;DHT22;52193;48.216;-1.698;2023-05-15T02:48:50;18.70;91.30
16863;DHT22;52193;48.216;-1.698;2023-05-15T02:51:18;18.70;91.40
16863;DHT22;52193;48.216;-1.698;2023-05-15T02:53:45;18.70;91.40
16863;DHT22;52193;48.216;-1.698;2023-05-15T02:56:12;18.70;91.40
16863;DHT22;52193;48.216;-1.698;2023-05-15T02:58:39;18.70;91.40
16863;DHT22;52193;48.216;-1.698;2023-05-15T03:01:07;18.60;91.40
16863;DHT22;52193;48.216;-1.698;2023-05-15T03:03:33;18.70;91.50
16863;DHT22;52193;48.216;-1.698;2023-05-15T03:06:02;18.70;91.50
16863;DHT22;52193;48.216;-1.698;2023-05-15T03:08:29;18.70;91.50
16863;DHT22;52193;48.216;-1.698;2023-05-15T03:10:56;18.60;91.50
16863;DHT22;52193;48.216;-1.698;2023-05-15T03:13:22;18.70;91.50
16863;DHT22;52193;48.216;-1.698;2023-05-15T03:15:50;18.60;91.50
16863;DHT22;52193;48.216;-1.698;2023-05-15T03:18:17;18.60;91.50
16863;DHT22;52193;48.216;-1.698;2023-05-15T03:20:45;18.60;91.60
16863;DHT22;52193;48.216;-1.698;2023-05-15T03:23:14;18.60;91.60
16863;DHT22;52193;48.216;-1.698;2023-05-15T03:25:41;18.60;91.50
16863;DHT22;52193;48.216;-1.698;2023-05-15T03:28:08;18.50;91.60
16863;DHT22;52193;48.216;-1.698;2023-05-15T03:30:35;18.60;91.60
16863;DHT22;52193;48.216;-1.698;2023-05-15T03:33:02;18.50;91.60
16863;DHT22;52193;48.216;-1.698;2023-05-15T03:35:29;18.50;91.60
16863;DHT22;52193;48.216;-1.698;2023-05-15T03:37:56;18.50;91.60
16863;DHT22;52193;48.216;-1.698;2023-05-15T03:40:25;18.50;91.70
16863;DHT22;52193;48.216;-1.698;2023-05-15T03:42:51;18.50;91.70
16863;DHT22;52193;48.216;-1.698;2023-05-15T03:45:18;18.50;91.70
16863;DHT22;52193;48.216;-1.698;2023-05-15T03:47:45;18.40;91.70
16863;DHT22;52193;48.216;-1.698;2023-05-15T03:50:13;18.40;91.70
16863;DHT22;52193;48.216;-1.698;2023-05-15T03:52:40;18.40;91.70
16863;DHT22;52193;48.216;-1.698;2023-05-15T03:55:07;18.40;91.70
16863;DHT22;52193;48.216;-1.698;2023-05-15T03:57:35;18.40;91.80
16863;DHT22;52193;48.216;-1.698;2023-05-15T04:00:03;18.40;91.70
16863;DHT22;52193;48.216;-1.698;2023-05-15T04:02:34;18.40;91.70
16863;DHT22;52193;48.216;-1.698;2023-05-15T04:05:02;18.30;91.70
16863;DHT22;52193;48.216;-1.698;2023-05-15T04:07:31;18.30;91.70
16863;DHT22;52193;48.216;-1.698;2023-05-15T04:09:58;18.30;91.80
16863;DHT22;52193;48.216;-1.698;2023-05-15T04:12:26;18.10;91.80
16863;DHT22;52193;48.216;-1.698;2023-05-15T04:14:57;18.10;91.90
16863;DHT22;52193;48.216;-1.698;2023-05-15T04:17:24;18.10;91.90
16863;DHT22;52193;48.216;-1.698;2023-05-15T04:19:51;18.00;91.90
16863;DHT22;52193;48.216;-1.698;2023-05-15T04:22:18;18.00;92.00
16863;DHT22;52193;48.216;-1.698;2023-05-15T04:24:45;18.00;92.00
16863;DHT22;52193;48.216;-1.698;2023-05-15T04:27:12;18.00;92.10
16863;DHT22;52193;48.216;-1.698;2023-05-15T04:29:39;17.90;92.00
16863;DHT22;52193;48.216;-1.698;2023-05-15T04:32:07;18.00;92.10
16863;DHT22;52193;48.216;-1.698;2023-05-15T04:34:34;18.00;92.10
16863;DHT22;52193;48.216;-1.698;2023-05-15T04:37:01;18.00;92.20
16863;DHT22;52193;48.216;-1.698;2023-05-15T04:39:29;18.00;92.10
16863;DHT22;52193;48.216;-1.698;2023-05-15T04:41:56;18.00;92.20
16863;DHT22;52193;48.216;-1.698;2023-05-15T04:44:23;18.00;92.20
16863;DHT22;52193;48.216;-1.698;2023-05-15T04:46:50;18.00;92.20
16863;DHT22;52193;48.216;-1.698;2023-05-15T04:49:18;18.00;92.20
16863;DHT22;52193;48.216;-1.698;2023-05-15T04:51:45;17.90;92.20
16863;DHT22;52193;48.216;-1.698;2023-05-15T04:54:12;18.00;92.30
16863;DHT22;52193;48.216;-1.698;2023-05-15T04:56:39;18.00;92.30
16863;DHT22;52193;48.216;-1.698;2023-05-15T04:59:05;18.00;92.30
16863;DHT22;52193;48.216;-1.698;2023-05-15T05:01:33;18.10;92.40
16863;DHT22;52193;48.216;-1.698;2023-05-15T05:03:59;18.10;92.30
16863;DHT22;52193;48.216;-1.698;2023-05-15T05:06:28;18.10;92.30
16863;DHT22;52193;48.216;-1.698;2023-05-15T05:08:55;18.10;92.30
16863;DHT22;52193;48.216;-1.698;2023-05-15T05:11:22;18.10;92.30
16863;DHT22;52193;48.216;-1.698;2023-05-15T05:13:49;18.10;92.30
16863;DHT22;52193;48.216;-1.698;2023-05-15T05:16:16;18.10;92.40
16863;DHT22;52193;48.216;-1.698;2023-05-15T05:18:43;18.10;92.30
16863;DHT22;52193;48.216;-1.698;2023-05-15T05:21:10;18.10;92.50
16863;DHT22;52193;48.216;-1.698;2023-05-15T05:23:38;18.10;92.40
16863;DHT22;52193;48.216;-1.698;2023-05-15T05:26:05;18.10;92.50
16863;DHT22;52193;48.216;-1.698;2023-05-15T05:28:32;18.20;92.50
16863;DHT22;52193;48.216;-1.698;2023-05-15T05:30:59;18.20;92.50
16863;DHT22;52193;48.216;-1.698;2023-05-15T05:33:27;18.20;92.50
16863;DHT22;52193;48.216;-1.698;2023-05-15T05:35:53;18.20;92.50
16863;DHT22;52193;48.216;-1.698;2023-05-15T05:38:21;18.30;92.50
16863;DHT22;52193;48.216;-1.698;2023-05-15T05:40:49;18.30;92.50
16863;DHT22;52193;48.216;-1.698;2023-05-15T05:43:16;18.30;92.50
16863;DHT22;52193;48.216;-1.698;2023-05-15T05:45:43;18.30;92.40
16863;DHT22;52193;48.216;-1.698;2023-05-15T05:48:10;18.30;92.40
16863;DHT22;52193;48.216;-1.698;2023-05-15T05:50:37;18.40;92.50
16863;DHT22;52193;48.216;-1.698;2023-05-15T05:53:05;18.30;92.40
16863;DHT22;52193;48.216;-1.698;2023-05-15T05:55:32;18.30;92.50
16863;DHT22;52193;48.216;-1.698;2023-05-15T05:58:00;18.30;92.60
16863;DHT22;52193;48.216;-1.698;2023-05-15T06:00:27;18.40;92.70
16863;DHT22;52193;48.216;-1.698;2023-05-15T06:02:55;18.30;92.50
16863;DHT22;52193;48.216;-1.698;2023-05-15T06:05:23;18.20;92.60
16863;DHT22;52193;48.216;-1.698;2023-05-15T06:07:50;18.30;92.70
16863;DHT22;52193;48.216;-1.698;2023-05-15T06:10:17;18.30;92.70
16863;DHT22;52193;48.216;-1.698;2023-05-15T06:12:45;18.30;92.70
16863;DHT22;52193;48.216;-1.698;2023-05-15T06:15:16;18.30;92.70
16863;DHT22;52193;48.216;-1.698;2023-05-15T06:17:42;18.40;92.80
16863;DHT22;52193;48.216;-1.698;2023-05-15T06:20:10;18.30;92.70
16863;DHT22;52193;48.216;-1.698;2023-05-15T06:22:37;18.40;92.80
16863;DHT22;52193;48.216;-1.698;2023-05-15T06:25:06;18.40;92.70
16863;DHT22;52193;48.216;-1.698;2023-05-15T06:27:35;18.30;92.80
16863;DHT22;52193;48.216;-1.698;2023-05-15T06:30:03;18.30;92.90
16863;DHT22;52193;48.216;-1.698;2023-05-15T06:32:32;18.40;93.20
16863;DHT22;52193;48.216;-1.698;2023-05-15T06:34:59;18.40;92.90
16863;DHT22;52193;48.216;-1.698;2023-05-15T06:37:26;18.50;92.90
16863;DHT22;52193;48.216;-1.698;2023-05-15T06:39:53;18.50;93.00
16863;DHT22;52193;48.216;-1.698;2023-05-15T06:42:21;18.50;93.00
16863;DHT22;52193;48.216;-1.698;2023-05-15T06:44:48;18.60;93.10
16863;DHT22;52193;48.216;-1.698;2023-05-15T06:47:15;18.60;93.00
16863;DHT22;52193;48.216;-1.698;2023-05-15T06:49:43;18.60;93.00
16863;DHT22;52193;48.216;-1.698;2023-05-15T06:52:10;18.60;93.20
16863;DHT22;52193;48.216;-1.698;2023-05-15T06:54:37;18.60;93.30
16863;DHT22;52193;48.216;-1.698;2023-05-15T06:57:05;18.60;93.30
16863;DHT22;52193;48.216;-1.698;2023-05-15T06:59:32;18.70;93.50
16863;DHT22;52193;48.216;-1.698;2023-05-15T07:02:00;18.70;93.50
16863;DHT22;52193;48.216;-1.698;2023-05-15T07:04:27;18.70;93.60
16863;DHT22;52193;48.216;-1.698;2023-05-15T07:06:56;18.70;93.60
16863;DHT22;52193;48.216;-1.698;2023-05-15T07:09:23;18.70;93.90
16863;DHT22;52193;48.216;-1.698;2023-05-15T07:11:50;18.60;93.90
16863;DHT22;52193;48.216;-1.698;2023-05-15T07:14:17;18.60;94.00
16863;DHT22;52193;48.216;-1.698;2023-05-15T07:16:44;18.60;94.10
16863;DHT22;52193;48.216;-1.698;2023-05-15T07:19:12;18.70;94.20
16863;DHT22;52193;48.216;-1.698;2023-05-15T07:21:39;18.60;94.30
16863;DHT22;52193;48.216;-1.698;2023-05-15T07:24:07;18.70;94.30
16863;DHT22;52193;48.216;-1.698;2023-05-15T07:26:34;18.70;94.30
16863;DHT22;52193;48.216;-1.698;2023-05-15T07:29:01;18.70;94.30
16863;DHT22;52193;48.216;-1.698;2023-05-15T07:31:28;18.70;94.50
16863;DHT22;52193;48.216;-1.698;2023-05-15T07:33:55;18.70;94.50
16863;DHT22;52193;48.216;-1.698;2023-05-15T07:36:22;18.70;94.60
16863;DHT22;52193;48.216;-1.698;2023-05-15T07:38:50;18.70;94.60
16863;DHT22;52193;48.216;-1.698;2023-05-15T07:41:18;18.70;94.70
16863;DHT22;52193;48.216;-1.698;2023-05-15T07:43:45;18.70;94.80
16863;DHT22;52193;48.216;-1.698;2023-05-15T07:46:12;18.70;94.80
16863;DHT22;52193;48.216;-1.698;2023-05-15T07:48:39;18.60;94.80
16863;DHT22;52193;48.216;-1.698;2023-05-15T07:51:06;18.50;94.90
16863;DHT22;52193;48.216;-1.698;2023-05-15T07:53:32;18.60;94.90
16863;DHT22;52193;48.216;-1.698;2023-05-15T07:55:59;18.70;95.00
16863;DHT22;52193;48.216;-1.698;2023-05-15T07:58:28;18.70;95.00
16863;DHT22;52193;48.216;-1.698;2023-05-15T08:00:54;18.70;95.00
16863;DHT22;52193;48.216;-1.698;2023-05-15T08:03:21;18.70;95.10
16863;DHT22;52193;48.216;-1.698;2023-05-15T08:05:48;18.70;95.10
16863;DHT22;52193;48.216;-1.698;2023-05-15T08:08:16;18.70;95.20
16863;DHT22;52193;48.216;-1.698;2023-05-15T08:10:43;18.70;95.20
16863;DHT22;52193;48.216;-1.698;2023-05-15T08:13:10;18.70;95.20
16863;DHT22;52193;48.216;-1.698;2023-05-15T08:15:38;18.70;95.30
16863;DHT22;52193;48.216;-1.698;2023-05-15T08:18:07;18.80;95.30
16863;DHT22;52193;48.216;-1.698;2023-05-15T08:20:35;18.80;95.30
16863;DHT22;52193;48.216;-1.698;2023-05-15T08:23:02;18.90;95.30
16863;DHT22;52193;48.216;-1.698;2023-05-15T08:25:29;19.00;95.30
16863;DHT22;52193;48.216;-1.698;2023-05-15T08:27:56;19.00;95.40
16863;DHT22;52193;48.216;-1.698;2023-05-15T08:30:23;19.00;95.40
16863;DHT22;52193;48.216;-1.698;2023-05-15T08:32:51;19.00;95.40
16863;DHT22;52193;48.216;-1.698;2023-05-15T08:35:18;19.00;95.50
16863;DHT22;52193;48.216;-1.698;2023-05-15T08:37:45;19.10;95.40
16863;DHT22;52193;48.216;-1.698;2023-05-15T08:40:13;19.20;95.50
16863;DHT22;52193;48.216;-1.698;2023-05-15T08:42:43;19.20;95.50
16863;DHT22;52193;48.216;-1.698;2023-05-15T08:45:12;19.10;95.50
16863;DHT22;52193;48.216;-1.698;2023-05-15T08:47:40;19.10;95.60
16863;DHT22;52193;48.216;-1.698;2023-05-15T08:50:12;19.20;95.70
16863;DHT22;52193;48.216;-1.698;2023-05-15T08:52:40;19.10;95.60
16863;DHT22;52193;48.216;-1.698;2023-05-15T08:55:08;19.00;95.60
16863;DHT22;52193;48.216;-1.698;2023-05-15T08:57:36;19.00;95.70
16863;DHT22;52193;48.216;-1.698;2023-05-15T09:00:04;19.10;95.80
16863;DHT22;52193;48.216;-1.698;2023-05-15T09:02:34;19.20;95.90
16863;DHT22;52193;48.216;-1.698;2023-05-15T09:05:01;19.20;95.80
16863;DHT22;52193;48.216;-1.698;2023-05-15T09:07:30;19.20;95.80
16863;DHT22;52193;48.216;-1.698;2023-05-15T09:09:58;19.10;95.90
16863;DHT22;52193;48.216;-1.698;2023-05-15T09:12:26;19.20;96.10
16863;DHT22;52193;48.216;-1.698;2023-05-15T09:15:08;19.20;96.10
16863;DHT22;52193;48.216;-1.698;2023-05-15T09:17:35;19.40;96.10
16863;DHT22;52193;48.216;-1.698;2023-05-15T09:20:02;19.40;96.00
16863;DHT22;52193;48.216;-1.698;2023-05-15T09:22:35;19.40;96.10
16863;DHT22;52193;48.216;-1.698;2023-05-15T09:25:02;19.50;96.20
16863;DHT22;52193;48.216;-1.698;2023-05-15T09:27:30;19.50;96.20
16863;DHT22;52193;48.216;-1.698;2023-05-15T09:30:09;19.50;96.10
16863;DHT22;52193;48.216;-1.698;2023-05-15T09:32:37;19.50;96.20
16863;DHT22;52193;48.216;-1.698;2023-05-15T09:35:27;19.50;96.30
16863;DHT22;52193;48.216;-1.698;2023-05-15T09:37:58;19.50;96.30
16863;DHT22;52193;48.216;-1.698;2023-05-15T09:40:28;19.50;96.30
16863;DHT22;52193;48.216;-1.698;2023-05-15T09:42:56;19.50;96.40
16863;DHT22;52193;48.216;-1.698;2023-05-15T09:45:23;19.50;96.40
16863;DHT22;52193;48.216;-1.698;2023-05-15T09:47:51;19.60;96.40
16863;DHT22;52193;48.216;-1.698;2023-05-15T09:50:22;19.70;96.40
16863;DHT22;52193;48.216;-1.698;2023-05-15T09:52:49;19.70;96.30
16863;DHT22;52193;48.216;-1.698;2023-05-15T09:55:18;19.80;96.40
16863;DHT22;52193;48.216;-1.698;2023-05-15T09:58:03;19.90;96.40
16863;DHT22;52193;48.216;-1.698;2023-05-15T10:00:31;20.00;96.40
16863;DHT22;52193;48.216;-1.698;2023-05-15T10:03:00;19.90;96.30
16863;DHT22;52193;48.216;-1.698;2023-05-15T10:05:28;19.90;96.50
16863;DHT22;52193;48.216;-1.698;2023-05-15T10:07:55;19.90;96.50
16863;DHT22;52193;48.216;-1.698;2023-05-15T10:10:24;20.00;96.60
16863;DHT22;52193;48.216;-1.698;2023-05-15T10:12:52;20.00;96.70
16863;DHT22;52193;48.216;-1.698;2023-05-15T10:15:21;20.00;96.60
16863;DHT22;52193;48.216;-1.698;2023-05-15T10:17:49;20.00;96.60
16863;DHT22;52193;48.216;-1.698;2023-05-15T10:20:17;20.00;96.60
16863;DHT22;52193;48.216;-1.698;2023-05-15T10:22:47;20.10;96.70
16863;DHT22;52193;48.216;-1.698;2023-05-15T10:25:26;20.20;96.60
16863;DHT22;52193;48.216;-1.698;2023-05-15T10:27:55;20.30;96.60
16863;DHT22;52193;48.216;-1.698;2023-05-15T10:30:23;20.40;96.60
16863;DHT22;52193;48.216;-1.698;2023-05-15T10:32:50;20.40;96.50
16863;DHT22;52193;48.216;-1.698;2023-05-15T10:35:18;20.50;96.60
16863;DHT22;52193;48.216;-1.698;2023-05-15T10:37:46;20.60;96.50
16863;DHT22;52193;48.216;-1.698;2023-05-15T10:40:15;20.60;96.50
16863;DHT22;52193;48.216;-1.698;2023-05-15T10:42:44;20.70;96.40
16863;DHT22;52193;48.216;-1.698;2023-05-15T10:45:13;20.60;96.30
16863;DHT22;52193;48.216;-1.698;2023-05-15T10:47:41;20.50;96.30
16863;DHT22;52193;48.216;-1.698;2023-05-15T10:50:09;20.50;96.30
16863;DHT22;52193;48.216;-1.698;2023-05-15T10:52:38;20.50;96.20
16863;DHT22;52193;48.216;-1.698;2023-05-15T10:55:06;20.40;96.10
16863;DHT22;52193;48.216;-1.698;2023-05-15T10:57:34;20.30;96.10
16863;DHT22;52193;48.216;-1.698;2023-05-15T11:00:01;20.40;96.20
16863;DHT22;52193;48.216;-1.698;2023-05-15T11:02:37;20.40;96.20
16863;DHT22;52193;48.216;-1.698;2023-05-15T11:05:05;20.40;96.10
16863;DHT22;52193;48.216;-1.698;2023-05-15T11:07:32;20.40;96.00
16863;DHT22;52193;48.216;-1.698;2023-05-15T11:09:59;20.30;96.00
16863;DHT22;52193;48.216;-1.698;2023-05-15T11:12:56;20.20;96.00
16863;DHT22;52193;48.216;-1.698;2023-05-15T11:15:23;20.20;96.00
16863;DHT22;52193;48.216;-1.698;2023-05-15T11:18:05;20.10;96.00
16863;DHT22;52193;48.216;-1.698;2023-05-15T11:20:33;20.20;96.10
16863;DHT22;52193;48.216;-1.698;2023-05-15T11:23:04;20.20;95.90
16863;DHT22;52193;48.216;-1.698;2023-05-15T11:25:31;20.20;95.90
16863;DHT22;52193;48.216;-1.698;2023-05-15T11:27:58;20.20;96.00
16863;DHT22;52193;48.216;-1.698;2023-05-15T11:30:36;20.20;96.00
16863;DHT22;52193;48.216;-1.698;2023-05-15T11:33:05;20.10;96.00
16863;DHT22;52193;48.216;-1.698;2023-05-15T11:35:37;20.10;96.00
16863;DHT22;52193;48.216;-1.698;2023-05-15T11:38:10;20.10;96.00
16863;DHT22;52193;48.216;-1.698;2023-05-15T11:40:49;20.10;96.00
16863;DHT22;52193;48.216;-1.698;2023-05-15T11:43:18;20.10;96.00
16863;DHT22;52193;48.216;-1.698;2023-05-15T11:45:47;20.10;95.80
16863;DHT22;52193;48.216;-1.698;2023-05-15T11:48:16;20.10;95.80
16863;DHT22;52193;48.216;-1.698;2023-05-15T11:50:44;20.10;95.70
16863;DHT22;52193;48.216;-1.698;2023-05-15T11:53:11;20.10;95.60
16863;DHT22;52193;48.216;-1.698;2023-05-15T11:55:40;20.00;95.50
16863;DHT22;52193;48.216;-1.698;2023-05-15T11:58:12;20.00;95.50
16863;DHT22;52193;48.216;-1.698;2023-05-15T12:00:40;20.10;95.50
16863;DHT22;52193;48.216;-1.698;2023-05-15T12:03:15;20.00;95.40
16863;DHT22;52193;48.216;-1.698;2023-05-15T12:05:43;19.90;95.30
16863;DHT22;52193;48.216;-1.698;2023-05-15T12:08:10;19.80;95.30
16863;DHT22;52193;48.216;-1.698;2023-05-15T12:10:41;19.80;95.30
16863;DHT22;52193;48.216;-1.698;2023-05-15T12:13:09;19.70;95.20
16863;DHT22;52193;48.216;-1.698;2023-05-15T12:15:37;19.70;95.20
16863;DHT22;52193;48.216;-1.698;2023-05-15T12:18:05;19.80;95.30
16863;DHT22;52193;48.216;-1.698;2023-05-15T12:20:35;19.80;95.10
16863;DHT22;52193;48.216;-1.698;2023-05-15T12:23:02;19.80;95.10
16863;DHT22;52193;48.216;-1.698;2023-05-15T12:25:30;19.80;95.20
16863;DHT22;52193;48.216;-1.698;2023-05-15T12:27:58;19.80;95.10
16863;DHT22;52193;48.216;-1.698;2023-05-15T12:30:26;19.80;95.10
16863;DHT22;52193;48.216;-1.698;2023-05-15T12:32:55;19.90;95.00
16863;DHT22;52193;48.216;-1.698;2023-05-15T12:35:22;19.70;94.90
16863;DHT22;52193;48.216;-1.698;2023-05-15T12:37:50;19.70;94.90
16863;DHT22;52193;48.216;-1.698;2023-05-15T12:40:19;19.70;94.90
16863;DHT22;52193;48.216;-1.698;2023-05-15T12:42:51;19.70;94.90
16863;DHT22;52193;48.216;-1.698;2023-05-15T12:45:21;19.70;94.80
16863;DHT22;52193;48.216;-1.698;2023-05-15T12:47:49;19.70;94.70
16863;DHT22;52193;48.216;-1.698;2023-05-15T12:50:17;19.80;94.70
16863;DHT22;52193;48.216;-1.698;2023-05-15T12:52:56;19.70;94.60
16863;DHT22;52193;48.216;-1.698;2023-05-15T12:55:24;19.70;94.60
16863;DHT22;52193;48.216;-1.698;2023-05-15T12:57:52;19.60;94.50
16863;DHT22;52193;48.216;-1.698;2023-05-15T13:00:20;19.70;94.50
16863;DHT22;52193;48.216;-1.698;2023-05-15T13:02:48;19.70;94.80
16863;DHT22;52193;48.216;-1.698;2023-05-15T13:05:16;19.80;94.50
16863;DHT22;52193;48.216;-1.698;2023-05-15T13:07:43;19.80;94.40
16863;DHT22;52193;48.216;-1.698;2023-05-15T13:10:11;19.80;94.40
16863;DHT22;52193;48.216;-1.698;2023-05-15T13:12:42;19.80;94.40
16863;DHT22;52193;48.216;-1.698;2023-05-15T13:15:22;19.80;94.40
16863;DHT22;52193;48.216;-1.698;2023-05-15T13:17:52;19.70;94.40
16863;DHT22;52193;48.216;-1.698;2023-05-15T13:20:21;19.70;94.50
16863;DHT22;52193;48.216;-1.698;2023-05-15T13:22:48;19.80;94.40
16863;DHT22;52193;48.216;-1.698;2023-05-15T13:25:18;19.80;94.30
16863;DHT22;52193;48.216;-1.698;2023-05-15T13:27:45;19.80;94.20
16863;DHT22;52193;48.216;-1.698;2023-05-15T13:30:13;19.80;94.20
16863;DHT22;52193;48.216;-1.698;2023-05-15T13:32:41;19.80;94.10
16863;DHT22;52193;48.216;-1.698;2023-05-15T13:35:08;19.90;94.10
16863;DHT22;52193;48.216;-1.698;2023-05-15T13:37:35;19.90;94.10
16863;DHT22;52193;48.216;-1.698;2023-05-15T13:40:03;20.00;93.90
16863;DHT22;52193;48.216;-1.698;2023-05-15T13:42:33;20.10;93.90
16863;DHT22;52193;48.216;-1.698;2023-05-15T13:45:00;20.10;93.80
16863;DHT22;52193;48.216;-1.698;2023-05-15T13:47:27;20.10;93.70
16863;DHT22;52193;48.216;-1.698;2023-05-15T13:49:54;20.20;93.70
16863;DHT22;52193;48.216;-1.698;2023-05-15T13:52:20;20.20;93.70
16863;DHT22;52193;48.216;-1.698;2023-05-15T13:54:47;20.10;93.70
16863;DHT22;52193;48.216;-1.698;2023-05-15T13:57:14;20.10;93.60
16863;DHT22;52193;48.216;-1.698;2023-05-15T13:59:43;20.00;93.50
16863;DHT22;52193;48.216;-1.698;2023-05-15T14:02:10;19.90;93.40
16863;DHT22;52193;48.216;-1.698;2023-05-15T14:04:36;19.90;93.40
16863;DHT22;52193;48.216;-1.698;2023-05-15T14:07:04;19.90;93.40
16863;DHT22;52193;48.216;-1.698;2023-05-15T14:09:31;19.90;93.40
16863;DHT22;52193;48.216;-1.698;2023-05-15T14:11:57;19.80;93.40
16863;DHT22;52193;48.216;-1.698;2023-05-15T14:14:24;19.90;93.40
16863;DHT22;52193;48.216;-1.698;2023-05-15T14:16:53;19.90;93.30
16863;DHT22;52193;48.216;-1.698;2023-05-15T14:19:20;20.10;93.60
16863;DHT22;52193;48.216;-1.698;2023-05-15T14:21:47;20.10;93.10
16863;DHT22;52193;48.216;-1.698;2023-05-15T14:24:14;20.10;93.10
16863;DHT22;52193;48.216;-1.698;2023-05-15T14:26:41;20.10;93.10
16863;DHT22;52193;48.216;-1.698;2023-05-15T14:29:10;20.20;93.00
16863;DHT22;52193;48.216;-1.698;2023-05-15T14:31:37;20.40;92.80
16863;DHT22;52193;48.216;-1.698;2023-05-15T14:34:05;20.50;92.60
16863;DHT22;52193;48.216;-1.698;2023-05-15T14:36:32;20.50;92.50
16863;DHT22;52193;48.216;-1.698;2023-05-15T14:38:59;20.60;92.30
16863;DHT22;52193;48.216;-1.698;2023-05-15T14:41:26;20.70;92.20
16863;DHT22;52193;48.216;-1.698;2023-05-15T14:43:53;20.70;92.00
16863;DHT22;52193;48.216;-1.698;2023-05-15T14:46:20;20.80;91.90
16863;DHT22;52193;48.216;-1.698;2023-05-15T14:48:47;20.90;91.80
16863;DHT22;52193;48.216;-1.698;2023-05-15T14:51:15;20.90;91.80
16863;DHT22;52193;48.216;-1.698;2023-05-15T14:53:42;21.00;91.70
16863;DHT22;52193;48.216;-1.698;2023-05-15T14:56:09;20.90;91.60
16863;DHT22;52193;48.216;-1.698;2023-05-15T14:58:36;20.90;91.60
16863;DHT22;52193;48.216;-1.698;2023-05-15T15:01:03;20.90;91.40
16863;DHT22;52193;48.216;-1.698;2023-05-15T15:03:30;21.00;91.30
16863;DHT22;52193;48.216;-1.698;2023-05-15T15:05:57;21.00;91.10
16863;DHT22;52193;48.216;-1.698;2023-05-15T15:08:25;21.10;90.90
16863;DHT22;52193;48.216;-1.698;2023-05-15T15:10:52;21.30;90.60
16863;DHT22;52193;48.216;-1.698;2023-05-15T15:13:19;21.40;90.40
16863;DHT22;52193;48.216;-1.698;2023-05-15T15:15:46;21.60;90.20
16863;DHT22;52193;48.216;-1.698;2023-05-15T15:18:13;22.00;89.80
16863;DHT22;52193;48.216;-1.698;2023-05-15T15:20:40;22.40;89.60
16863;DHT22;52193;48.216;-1.698;2023-05-15T15:23:07;22.70;89.30